Bei Facebook empfehlenBei Twitter postenGoogle plusPinterest

Das Wetter im Erzgebirge am 17.04.2016

Wetter und Klima am 17.04.2016 Holzhau im Erzgebirge (630m ü.NN)
Letzte gemessene Temperatur und Uhrzeit der Messung23:45:00 Uhr1.80 °C
Temperatur (Maximum / Höchstwert) und Uhrzeit der Messung14:00:00 Uhr7.90 °C
Temperatur (Minimum / Tiefstwert) und Uhrzeit der Messung23:45:001.80 °C
Errechneter Absolutwert der Temperaturschwankungen zwischen Tmin und Tmax des Tages6.10 K
Errechnete Tagesmitteltemperatur5.36354 °C
Gesamt - Niederschlag des Tages (in flüssiger Form)10.36 Liter / m²
Luftdruck (Maximum / Höchstwert) und Zeitpunkt der Messung23:30:00 Uhr1012.00 hPa
Luftdruck (Minimum / Tiefstwert) und Zeitpunkt der Messung02:30:00 Uhr999.90 hPa
Errechneter Absolutwert der Luftdruckschwankungen des Tages12.10 hPa
Höchste gemessene Windgeschwindigkeit und Uhrzeit der Messung23:45:00 Uhr0.00 km/h
Errechnete Windhäufigkeit in Relation zu den Messwerten des Tages0.00000 %
Niedrigste Windkühle (Windchill) und Zeitpunkt der Messung23:45:00 Uhr1.80 °C
Taupunkt (Maximum / Höchstwert) und Uhrzeit der Messung13:15:00 Uhr7.00 °C
Taupunkt (Minimum / Tiefstwert) und Uhrzeit der Messung23:45:000.80 °C
Anzahl der automatisch eingelesenen Messwerte 96

Detaillierte Wetter- und Klima- Messwerte für den 17.04.2016 in Holzhau im Erzgebirge (630m ü.NN)
ZeitTemperaturLuftdruckRel. LuftfeuchteWindWindrichtungWindchillTaupunktNiederschlag l/m²
23:45:001.80 °C1011.90 hPa93.00 %0.80 °C10.36
23:30:002.10 °C1012.00 hPa93.00 %1.10 °C10.36
23:15:002.20 °C1011.70 hPa93.00 %1.20 °C10.36
23:00:002.40 °C1012.00 hPa93.00 %1.40 °C10.36
22:45:002.90 °C1011.40 hPa93.00 %1.90 °C10.36
22:30:003.10 °C1011.30 hPa93.00 %2.10 °C10.36
22:15:003.20 °C1011.50 hPa93.00 %2.20 °C10.36
22:00:003.20 °C1011.40 hPa93.00 %2.20 °C10.36
21:45:003.20 °C1011.20 hPa93.00 %2.20 °C10.36
21:30:003.30 °C1010.70 hPa93.00 %2.30 °C10.36
21:15:003.40 °C1010.30 hPa93.00 %2.40 °C10.36
21:00:003.40 °C1010.20 hPa93.00 %2.40 °C10.36
20:45:003.60 °C1010.00 hPa93.00 %2.60 °C10.36
20:30:003.80 °C1010.10 hPa93.00 %2.80 °C10.36
20:15:003.90 °C1010.40 hPa93.00 %2.90 °C10.36
20:00:003.90 °C1010.30 hPa93.00 %2.90 °C10.36
19:45:004.10 °C1009.70 hPa93.00 %3.10 °C10.36
19:30:004.10 °C1009.50 hPa93.00 %3.10 °C10.36
19:15:004.20 °C1009.50 hPa93.00 %3.20 °C10.36
19:00:004.20 °C1009.60 hPa93.00 %3.20 °C10.36
18:45:004.30 °C1009.00 hPa93.00 %3.30 °C10.36
18:30:004.30 °C1008.70 hPa93.00 %3.30 °C10.36
18:15:004.30 °C1009.00 hPa93.00 %3.30 °C10.36
18:00:004.40 °C1008.80 hPa93.00 %3.40 °C10.36
17:45:004.50 °C1008.10 hPa93.00 %3.50 °C10.36
17:30:004.60 °C1007.90 hPa93.00 %3.60 °C10.36
17:15:004.40 °C1007.80 hPa93.00 %3.40 °C10.36
17:00:004.50 °C1008.00 hPa92.00 %3.30 °C10.36
16:45:004.80 °C1008.30 hPa92.00 %3.60 °C10.36
16:30:005.10 °C1007.90 hPa93.00 %4.10 °C10.36
16:15:005.40 °C1007.30 hPa92.00 %4.20 °C10.36
16:00:005.80 °C1007.50 hPa92.00 %4.60 °C10.36
15:45:006.10 °C1006.90 hPa92.00 %4.90 °C10.36
15:30:006.50 °C1007.10 hPa92.00 %5.30 °C10.36
15:15:007.20 °C1007.10 hPa92.00 %6.00 °C10.36
15:00:007.10 °C1007.00 hPa93.00 %6.00 °C10.36
14:45:006.60 °C1007.20 hPa93.00 %5.60 °C10.36
14:30:007.00 °C1006.90 hPa93.00 %5.90 °C10.36
14:15:007.20 °C1006.60 hPa93.00 %6.10 °C10.36
14:00:007.90 °C1006.30 hPa93.00 %6.80 °C10.36
13:45:007.60 °C1006.20 hPa94.00 %6.70 °C10.36
13:30:007.50 °C1005.80 hPa94.00 %6.60 °C10.36
13:15:007.70 °C1005.80 hPa95.00 %7.00 °C10.36
13:00:006.60 °C1005.70 hPa94.00 %5.70 °C10.36
12:45:006.90 °C1005.70 hPa94.00 %6.00 °C10.36
12:30:006.40 °C1005.60 hPa95.00 %5.70 °C10.36
12:15:006.10 °C1005.60 hPa94.00 %5.20 °C10.36
12:00:006.20 °C1005.30 hPa94.00 %5.30 °C9.84
11:45:006.40 °C1005.10 hPa94.00 %5.50 °C9.84
11:30:006.80 °C1004.90 hPa94.00 %5.90 °C9.84
11:15:006.90 °C1004.60 hPa95.00 %6.20 °C9.84
11:00:006.70 °C1004.40 hPa95.00 %6.00 °C9.84
10:45:006.50 °C1004.50 hPa95.00 %5.80 °C9.84
10:30:005.90 °C1004.30 hPa95.00 %5.20 °C9.84
10:15:005.60 °C1004.00 hPa95.00 %4.90 °C9.84
10:00:005.80 °C1003.60 hPa95.00 %5.10 °C9.84
09:45:005.80 °C1003.60 hPa95.00 %5.10 °C9.84
09:30:005.80 °C1003.50 hPa95.00 %5.10 °C9.84
09:15:005.50 °C1003.50 hPa95.00 %4.80 °C9.84
09:00:005.60 °C1003.30 hPa94.00 %4.70 °C9.84
08:45:005.90 °C1002.90 hPa94.00 %5.00 °C9.84
08:30:006.20 °C1002.60 hPa94.00 %5.30 °C9.84
08:15:006.40 °C1002.30 hPa94.00 %5.50 °C9.84
08:00:006.40 °C1002.10 hPa94.00 %5.50 °C9.84
07:45:006.60 °C1001.80 hPa94.00 %5.70 °C9.84
07:30:007.20 °C1001.50 hPa94.00 %6.30 °C9.32
07:15:007.20 °C1001.40 hPa94.00 %6.30 °C9.32
07:00:007.10 °C1001.30 hPa94.00 %6.20 °C9.32
06:45:006.90 °C1001.10 hPa94.00 %6.00 °C9.32
06:30:006.80 °C1000.90 hPa94.00 %5.90 °C9.32
06:15:006.60 °C1000.70 hPa94.00 %5.70 °C8.80
06:00:006.60 °C1000.60 hPa94.00 %5.70 °C8.80
05:45:006.40 °C1000.50 hPa94.00 %5.50 °C8.80
05:30:006.40 °C1000.60 hPa94.00 %5.50 °C8.28
05:15:006.40 °C1000.80 hPa94.00 %5.50 °C7.77
05:00:006.30 °C1001.00 hPa93.00 %5.30 °C6.73
04:45:006.20 °C1001.00 hPa93.00 %5.20 °C5.69
04:30:006.30 °C1000.90 hPa93.00 %5.30 °C5.18
04:15:006.20 °C1000.90 hPa93.00 %5.20 °C4.66
04:00:006.20 °C1001.10 hPa93.00 %5.20 °C4.14
03:45:006.20 °C1001.40 hPa93.00 %5.20 °C3.10
03:30:006.20 °C1000.80 hPa93.00 %5.20 °C2.59
03:15:006.10 °C1000.40 hPa93.00 %5.10 °C2.59
03:00:005.90 °C1000.50 hPa93.00 %4.90 °C2.59
02:45:005.90 °C1000.30 hPa93.00 %4.90 °C2.07
02:30:005.80 °C999.90 hPa93.00 %4.80 °C2.07
02:15:005.60 °C1000.10 hPa93.00 %4.60 °C1.55
02:00:005.50 °C1000.40 hPa93.00 %4.50 °C1.03
01:45:005.10 °C1000.70 hPa92.00 %3.90 °C0.51
01:30:004.80 °C1001.20 hPa92.00 %3.60 °C0.51
01:15:003.90 °C1001.60 hPa92.00 %2.70 °C 
01:00:003.90 °C1001.30 hPa92.00 %2.70 °C 
00:45:003.30 °C1001.40 hPa91.00 %2.00 °C 
00:30:003.20 °C1001.40 hPa91.00 %1.90 °C 
00:15:003.60 °C1001.30 hPa91.00 %2.30 °C 
00:00:003.30 °C1001.40 hPa90.00 %1.80 °C 

Permanenter Link zu dieser Seite: Wetter im Erzgebirge am 17.04.2016
Performance-Info: Die Erstellung der Seite / Statistik(en) / Tabelle(n) erforderte 5 Datenbankserver-Abfrage(n) und dauerte 125 Millisekunden. (Dieser Messwert ist von der Gesamt-Auslastung des Servers abhängig.)
Erzgebirge - Wetter | Erzgebirge - Wetter (Mobilgeräte) | Komplette Klimadatenbank